sensor_id;sensor_type;location;lat;lon;timestamp;P1;durP1;ratioP1;P2;durP2;ratioP2
57085;SDS011;42964;42.910;23.792;2023-07-16T00:00:44;28.25;;;24.27;;
57085;SDS011;42964;42.910;23.792;2023-07-16T00:05:43;28.90;;;23.98;;
57085;SDS011;42964;42.910;23.792;2023-07-16T00:10:42;25.75;;;22.10;;
57085;SDS011;42964;42.910;23.792;2023-07-16T00:15:41;33.10;;;24.95;;
57085;SDS011;42964;42.910;23.792;2023-07-16T00:20:40;32.88;;;24.00;;
57085;SDS011;42964;42.910;23.792;2023-07-16T00:25:39;31.25;;;25.98;;
57085;SDS011;42964;42.910;23.792;2023-07-16T00:30:38;29.77;;;23.45;;
57085;SDS011;42964;42.910;23.792;2023-07-16T00:35:37;28.30;;;23.30;;
57085;SDS011;42964;42.910;23.792;2023-07-16T00:40:36;29.70;;;23.13;;
57085;SDS011;42964;42.910;23.792;2023-07-16T00:45:35;28.92;;;22.38;;
57085;SDS011;42964;42.910;23.792;2023-07-16T00:50:35;25.92;;;21.80;;
57085;SDS011;42964;42.910;23.792;2023-07-16T00:55:37;28.00;;;22.08;;
57085;SDS011;42964;42.910;23.792;2023-07-16T01:00:38;24.35;;;21.35;;
57085;SDS011;42964;42.910;23.792;2023-07-16T01:10:46;24.67;;;20.80;;
57085;SDS011;42964;42.910;23.792;2023-07-16T01:15:45;24.45;;;20.23;;
57085;SDS011;42964;42.910;23.792;2023-07-16T01:20:44;20.92;;;17.52;;
57085;SDS011;42964;42.910;23.792;2023-07-16T01:31:17;24.38;;;19.77;;
57085;SDS011;42964;42.910;23.792;2023-07-16T01:36:17;22.23;;;19.30;;
57085;SDS011;42964;42.910;23.792;2023-07-16T01:41:17;21.75;;;19.27;;
57085;SDS011;42964;42.910;23.792;2023-07-16T01:46:17;20.15;;;18.05;;
57085;SDS011;42964;42.910;23.792;2023-07-16T01:51:17;19.38;;;17.30;;
57085;SDS011;42964;42.910;23.792;2023-07-16T01:56:16;22.58;;;18.58;;
57085;SDS011;42964;42.910;23.792;2023-07-16T02:01:15;21.63;;;18.42;;
57085;SDS011;42964;42.910;23.792;2023-07-16T02:06:14;26.50;;;19.95;;
57085;SDS011;42964;42.910;23.792;2023-07-16T02:11:13;25.80;;;20.50;;
57085;SDS011;42964;42.910;23.792;2023-07-16T02:16:12;25.33;;;21.67;;
57085;SDS011;42964;42.910;23.792;2023-07-16T02:21:11;26.80;;;21.83;;
57085;SDS011;42964;42.910;23.792;2023-07-16T02:26:10;26.90;;;23.45;;
57085;SDS011;42964;42.910;23.792;2023-07-16T02:31:09;24.60;;;22.00;;
57085;SDS011;42964;42.910;23.792;2023-07-16T02:36:08;19.83;;;17.83;;
57085;SDS011;42964;42.910;23.792;2023-07-16T02:41:07;22.55;;;18.15;;
57085;SDS011;42964;42.910;23.792;2023-07-16T02:46:06;23.25;;;20.02;;
57085;SDS011;42964;42.910;23.792;2023-07-16T02:51:05;24.13;;;20.70;;
57085;SDS011;42964;42.910;23.792;2023-07-16T02:56:04;27.15;;;20.23;;
57085;SDS011;42964;42.910;23.792;2023-07-16T03:01:03;24.25;;;20.70;;
57085;SDS011;42964;42.910;23.792;2023-07-16T03:06:02;27.65;;;23.02;;
57085;SDS011;42964;42.910;23.792;2023-07-16T03:11:01;26.42;;;23.52;;
57085;SDS011;42964;42.910;23.792;2023-07-16T03:16:00;29.10;;;25.25;;
57085;SDS011;42964;42.910;23.792;2023-07-16T03:20:59;27.17;;;24.00;;
57085;SDS011;42964;42.910;23.792;2023-07-16T03:25:58;28.48;;;25.23;;
57085;SDS011;42964;42.910;23.792;2023-07-16T03:30:57;27.88;;;24.42;;
57085;SDS011;42964;42.910;23.792;2023-07-16T03:35:56;28.80;;;25.15;;
57085;SDS011;42964;42.910;23.792;2023-07-16T03:40:55;25.50;;;22.83;;
57085;SDS011;42964;42.910;23.792;2023-07-16T03:45:54;25.73;;;22.95;;
57085;SDS011;42964;42.910;23.792;2023-07-16T03:50:53;27.83;;;22.55;;
57085;SDS011;42964;42.910;23.792;2023-07-16T03:55:52;26.58;;;23.58;;
57085;SDS011;42964;42.910;23.792;2023-07-16T04:00:51;24.25;;;21.75;;
57085;SDS011;42964;42.910;23.792;2023-07-16T04:05:50;25.27;;;20.20;;
57085;SDS011;42964;42.910;23.792;2023-07-16T04:10:49;25.92;;;20.42;;
57085;SDS011;42964;42.910;23.792;2023-07-16T04:15:48;23.25;;;18.75;;
57085;SDS011;42964;42.910;23.792;2023-07-16T04:20:47;22.17;;;19.20;;
57085;SDS011;42964;42.910;23.792;2023-07-16T04:25:46;22.88;;;19.33;;
57085;SDS011;42964;42.910;23.792;2023-07-16T04:30:45;26.92;;;19.17;;
57085;SDS011;42964;42.910;23.792;2023-07-16T04:35:44;22.65;;;18.40;;
57085;SDS011;42964;42.910;23.792;2023-07-16T04:40:43;18.45;;;16.50;;
57085;SDS011;42964;42.910;23.792;2023-07-16T04:45:44;20.85;;;18.30;;
57085;SDS011;42964;42.910;23.792;2023-07-16T04:50:45;22.23;;;16.80;;
57085;SDS011;42964;42.910;23.792;2023-07-16T04:55:44;23.33;;;16.15;;
57085;SDS011;42964;42.910;23.792;2023-07-16T05:00:43;20.55;;;18.35;;
57085;SDS011;42964;42.910;23.792;2023-07-16T05:05:42;22.00;;;17.00;;
57085;SDS011;42964;42.910;23.792;2023-07-16T05:10:41;21.73;;;16.27;;
57085;SDS011;42964;42.910;23.792;2023-07-16T05:15:40;21.98;;;16.83;;
57085;SDS011;42964;42.910;23.792;2023-07-16T05:20:39;19.02;;;16.02;;
57085;SDS011;42964;42.910;23.792;2023-07-16T05:25:38;18.27;;;16.27;;
57085;SDS011;42964;42.910;23.792;2023-07-16T05:30:37;19.23;;;15.85;;
57085;SDS011;42964;42.910;23.792;2023-07-16T05:35:36;22.27;;;16.35;;
57085;SDS011;42964;42.910;23.792;2023-07-16T05:40:35;16.27;;;13.70;;
57085;SDS011;42964;42.910;23.792;2023-07-16T05:45:34;17.33;;;13.98;;
57085;SDS011;42964;42.910;23.792;2023-07-16T05:50:33;15.35;;;13.57;;
57085;SDS011;42964;42.910;23.792;2023-07-16T05:55:32;16.50;;;13.07;;
57085;SDS011;42964;42.910;23.792;2023-07-16T06:00:31;16.00;;;13.35;;
57085;SDS011;42964;42.910;23.792;2023-07-16T06:05:30;15.48;;;12.60;;
57085;SDS011;42964;42.910;23.792;2023-07-16T06:10:33;16.73;;;12.88;;
57085;SDS011;42964;42.910;23.792;2023-07-16T06:15:33;17.40;;;13.18;;
57085;SDS011;42964;42.910;23.792;2023-07-16T06:20:32;16.33;;;12.50;;
57085;SDS011;42964;42.910;23.792;2023-07-16T06:25:31;19.00;;;11.60;;
57085;SDS011;42964;42.910;23.792;2023-07-16T06:30:30;15.43;;;11.80;;
57085;SDS011;42964;42.910;23.792;2023-07-16T06:35:30;27.13;;;13.77;;
57085;SDS011;42964;42.910;23.792;2023-07-16T06:40:29;16.08;;;12.63;;
57085;SDS011;42964;42.910;23.792;2023-07-16T06:45:29;12.25;;;11.05;;
57085;SDS011;42964;42.910;23.792;2023-07-16T06:50:29;18.13;;;12.75;;
57085;SDS011;42964;42.910;23.792;2023-07-16T06:55:28;14.80;;;11.68;;
57085;SDS011;42964;42.910;23.792;2023-07-16T07:00:27;15.55;;;11.38;;
57085;SDS011;42964;42.910;23.792;2023-07-16T07:05:26;15.68;;;11.05;;
57085;SDS011;42964;42.910;23.792;2023-07-16T07:10:25;16.35;;;11.45;;
57085;SDS011;42964;42.910;23.792;2023-07-16T07:15:24;16.10;;;11.00;;
57085;SDS011;42964;42.910;23.792;2023-07-16T07:20:22;15.07;;;10.98;;
57085;SDS011;42964;42.910;23.792;2023-07-16T07:25:21;15.68;;;10.50;;
57085;SDS011;42964;42.910;23.792;2023-07-16T07:30:20;17.10;;;10.05;;
57085;SDS011;42964;42.910;23.792;2023-07-16T07:35:19;14.95;;;9.45;;
57085;SDS011;42964;42.910;23.792;2023-07-16T07:40:18;9.75;;;7.63;;
57085;SDS011;42964;42.910;23.792;2023-07-16T07:45:18;11.73;;;8.23;;
57085;SDS011;42964;42.910;23.792;2023-07-16T07:50:17;11.70;;;8.48;;
57085;SDS011;42964;42.910;23.792;2023-07-16T07:55:16;10.68;;;8.00;;
57085;SDS011;42964;42.910;23.792;2023-07-16T08:00:15;12.43;;;8.55;;
57085;SDS011;42964;42.910;23.792;2023-07-16T08:05:14;12.85;;;9.77;;
57085;SDS011;42964;42.910;23.792;2023-07-16T08:10:13;12.55;;;9.68;;
57085;SDS011;42964;42.910;23.792;2023-07-16T08:15:12;13.82;;;9.32;;
57085;SDS011;42964;42.910;23.792;2023-07-16T08:20:14;14.18;;;8.85;;
57085;SDS011;42964;42.910;23.792;2023-07-16T08:25:13;14.20;;;9.88;;
57085;SDS011;42964;42.910;23.792;2023-07-16T08:30:12;11.98;;;9.27;;
57085;SDS011;42964;42.910;23.792;2023-07-16T08:35:11;13.60;;;8.98;;
57085;SDS011;42964;42.910;23.792;2023-07-16T08:40:16;10.93;;;9.20;;
57085;SDS011;42964;42.910;23.792;2023-07-16T08:45:15;14.52;;;8.80;;
57085;SDS011;42964;42.910;23.792;2023-07-16T08:50:15;11.52;;;9.57;;
57085;SDS011;42964;42.910;23.792;2023-07-16T08:55:15;13.80;;;8.90;;
57085;SDS011;42964;42.910;23.792;2023-07-16T09:00:15;14.10;;;9.10;;
57085;SDS011;42964;42.910;23.792;2023-07-16T09:05:14;14.40;;;9.70;;
57085;SDS011;42964;42.910;23.792;2023-07-16T09:10:17;12.90;;;9.70;;
57085;SDS011;42964;42.910;23.792;2023-07-16T09:15:17;12.60;;;9.25;;
57085;SDS011;42964;42.910;23.792;2023-07-16T09:20:19;13.55;;;9.98;;
57085;SDS011;42964;42.910;23.792;2023-07-16T09:25:26;15.57;;;10.25;;
57085;SDS011;42964;42.910;23.792;2023-07-16T09:30:30;11.30;;;9.55;;
57085;SDS011;42964;42.910;23.792;2023-07-16T09:35:30;13.77;;;10.43;;
57085;SDS011;42964;42.910;23.792;2023-07-16T09:40:29;15.68;;;9.73;;
57085;SDS011;42964;42.910;23.792;2023-07-16T09:45:28;11.77;;;9.85;;
57085;SDS011;42964;42.910;23.792;2023-07-16T09:50:28;13.23;;;9.88;;
57085;SDS011;42964;42.910;23.792;2023-07-16T09:55:30;13.15;;;9.70;;
57085;SDS011;42964;42.910;23.792;2023-07-16T10:00:32;15.10;;;9.77;;
57085;SDS011;42964;42.910;23.792;2023-07-16T10:05:35;15.68;;;9.98;;
57085;SDS011;42964;42.910;23.792;2023-07-16T10:10:39;15.65;;;10.27;;
57085;SDS011;42964;42.910;23.792;2023-07-16T10:15:39;13.70;;;9.90;;
57085;SDS011;42964;42.910;23.792;2023-07-16T10:21:01;14.77;;;11.35;;
57085;SDS011;42964;42.910;23.792;2023-07-16T10:26:07;13.95;;;10.60;;
57085;SDS011;42964;42.910;23.792;2023-07-16T10:31:26;12.80;;;10.90;;
57085;SDS011;42964;42.910;23.792;2023-07-16T10:36:25;15.03;;;11.53;;
57085;SDS011;42964;42.910;23.792;2023-07-16T10:41:24;13.68;;;10.95;;
57085;SDS011;42964;42.910;23.792;2023-07-16T10:46:23;17.38;;;11.30;;
57085;SDS011;42964;42.910;23.792;2023-07-16T10:51:25;14.30;;;11.23;;
57085;SDS011;42964;42.910;23.792;2023-07-16T10:56:25;14.70;;;11.63;;
57085;SDS011;42964;42.910;23.792;2023-07-16T11:01:24;13.82;;;11.27;;
57085;SDS011;42964;42.910;23.792;2023-07-16T11:06:23;15.80;;;11.43;;
57085;SDS011;42964;42.910;23.792;2023-07-16T11:11:29;16.10;;;11.07;;
57085;SDS011;42964;42.910;23.792;2023-07-16T11:16:37;14.93;;;11.98;;
57085;SDS011;42964;42.910;23.792;2023-07-16T11:21:36;12.40;;;10.45;;
57085;SDS011;42964;42.910;23.792;2023-07-16T11:26:35;15.80;;;11.60;;
57085;SDS011;42964;42.910;23.792;2023-07-16T11:31:38;19.23;;;11.80;;
57085;SDS011;42964;42.910;23.792;2023-07-16T11:36:40;14.77;;;11.63;;
57085;SDS011;42964;42.910;23.792;2023-07-16T11:41:39;14.60;;;11.07;;
57085;SDS011;42964;42.910;23.792;2023-07-16T11:46:38;13.45;;;11.57;;
57085;SDS011;42964;42.910;23.792;2023-07-16T11:51:37;15.45;;;12.00;;
57085;SDS011;42964;42.910;23.792;2023-07-16T11:56:36;13.95;;;11.48;;
57085;SDS011;42964;42.910;23.792;2023-07-16T12:01:36;15.50;;;11.55;;
57085;SDS011;42964;42.910;23.792;2023-07-16T12:06:35;15.45;;;11.68;;
57085;SDS011;42964;42.910;23.792;2023-07-16T12:11:34;17.65;;;11.43;;
57085;SDS011;42964;42.910;23.792;2023-07-16T12:16:33;13.90;;;11.02;;
57085;SDS011;42964;42.910;23.792;2023-07-16T12:21:32;13.60;;;10.93;;
57085;SDS011;42964;42.910;23.792;2023-07-16T12:26:31;13.07;;;11.40;;
57085;SDS011;42964;42.910;23.792;2023-07-16T12:31:30;17.10;;;11.20;;
57085;SDS011;42964;42.910;23.792;2023-07-16T12:36:30;15.00;;;11.68;;
57085;SDS011;42964;42.910;23.792;2023-07-16T12:41:29;17.90;;;11.43;;
57085;SDS011;42964;42.910;23.792;2023-07-16T12:46:28;14.88;;;11.00;;
57085;SDS011;42964;42.910;23.792;2023-07-16T12:51:27;12.38;;;10.43;;
57085;SDS011;42964;42.910;23.792;2023-07-16T12:56:27;15.27;;;10.07;;
57085;SDS011;42964;42.910;23.792;2023-07-16T13:01:26;12.50;;;10.55;;
57085;SDS011;42964;42.910;23.792;2023-07-16T13:06:25;15.15;;;11.23;;
57085;SDS011;42964;42.910;23.792;2023-07-16T13:11:24;16.23;;;11.32;;
57085;SDS011;42964;42.910;23.792;2023-07-16T13:16:23;11.70;;;10.60;;
57085;SDS011;42964;42.910;23.792;2023-07-16T13:21:22;15.13;;;11.45;;
57085;SDS011;42964;42.910;23.792;2023-07-16T13:26:21;12.63;;;10.40;;
57085;SDS011;42964;42.910;23.792;2023-07-16T13:31:20;13.70;;;10.55;;
57085;SDS011;42964;42.910;23.792;2023-07-16T13:36:19;13.77;;;10.77;;
57085;SDS011;42964;42.910;23.792;2023-07-16T13:41:18;14.05;;;9.90;;
57085;SDS011;42964;42.910;23.792;2023-07-16T13:46:17;16.92;;;11.13;;
57085;SDS011;42964;42.910;23.792;2023-07-16T13:51:16;12.65;;;10.50;;
57085;SDS011;42964;42.910;23.792;2023-07-16T13:56:15;14.93;;;10.60;;
57085;SDS011;42964;42.910;23.792;2023-07-16T14:01:14;16.80;;;10.77;;
57085;SDS011;42964;42.910;23.792;2023-07-16T14:06:13;11.90;;;10.38;;
57085;SDS011;42964;42.910;23.792;2023-07-16T14:11:12;13.88;;;10.43;;
57085;SDS011;42964;42.910;23.792;2023-07-16T14:16:12;12.60;;;10.35;;
57085;SDS011;42964;42.910;23.792;2023-07-16T14:21:11;14.70;;;10.68;;
57085;SDS011;42964;42.910;23.792;2023-07-16T14:26:11;14.50;;;10.85;;
57085;SDS011;42964;42.910;23.792;2023-07-16T14:31:10;14.82;;;11.30;;
57085;SDS011;42964;42.910;23.792;2023-07-16T14:36:09;16.25;;;10.07;;
57085;SDS011;42964;42.910;23.792;2023-07-16T14:41:08;13.57;;;10.68;;
57085;SDS011;42964;42.910;23.792;2023-07-16T14:46:07;13.05;;;10.43;;
57085;SDS011;42964;42.910;23.792;2023-07-16T14:51:06;12.85;;;10.55;;
57085;SDS011;42964;42.910;23.792;2023-07-16T14:56:05;14.93;;;11.35;;
57085;SDS011;42964;42.910;23.792;2023-07-16T15:01:04;12.13;;;9.98;;
57085;SDS011;42964;42.910;23.792;2023-07-16T15:06:06;12.90;;;10.55;;
57085;SDS011;42964;42.910;23.792;2023-07-16T15:11:05;15.13;;;10.57;;
57085;SDS011;42964;42.910;23.792;2023-07-16T15:16:04;15.43;;;10.93;;
57085;SDS011;42964;42.910;23.792;2023-07-16T15:21:03;13.43;;;10.40;;
57085;SDS011;42964;42.910;23.792;2023-07-16T15:26:04;18.08;;;10.40;;
57085;SDS011;42964;42.910;23.792;2023-07-16T15:31:05;17.63;;;11.65;;
57085;SDS011;42964;42.910;23.792;2023-07-16T15:36:04;13.32;;;11.35;;
57085;SDS011;42964;42.910;23.792;2023-07-16T15:41:04;13.80;;;10.40;;
57085;SDS011;42964;42.910;23.792;2023-07-16T15:46:03;15.98;;;10.98;;
57085;SDS011;42964;42.910;23.792;2023-07-16T15:51:02;17.27;;;11.55;;
57085;SDS011;42964;42.910;23.792;2023-07-16T15:56:03;22.10;;;14.73;;
57085;SDS011;42964;42.910;23.792;2023-07-16T16:01:02;14.00;;;10.77;;
57085;SDS011;42964;42.910;23.792;2023-07-16T16:06:01;13.45;;;10.65;;
57085;SDS011;42964;42.910;23.792;2023-07-16T16:11:00;17.33;;;11.95;;
57085;SDS011;42964;42.910;23.792;2023-07-16T16:15:59;16.02;;;11.50;;
57085;SDS011;42964;42.910;23.792;2023-07-16T16:20:58;19.58;;;13.38;;
57085;SDS011;42964;42.910;23.792;2023-07-16T16:25:57;12.02;;;10.73;;
57085;SDS011;42964;42.910;23.792;2023-07-16T16:30:56;15.27;;;10.95;;
57085;SDS011;42964;42.910;23.792;2023-07-16T16:35:55;16.05;;;11.38;;
57085;SDS011;42964;42.910;23.792;2023-07-16T16:41:01;14.75;;;10.73;;
57085;SDS011;42964;42.910;23.792;2023-07-16T16:46:02;13.25;;;11.55;;
57085;SDS011;42964;42.910;23.792;2023-07-16T16:51:02;15.93;;;12.35;;
57085;SDS011;42964;42.910;23.792;2023-07-16T16:56:04;16.27;;;12.52;;
57085;SDS011;42964;42.910;23.792;2023-07-16T17:01:06;17.00;;;12.55;;
57085;SDS011;42964;42.910;23.792;2023-07-16T17:06:05;15.32;;;12.70;;
57085;SDS011;42964;42.910;23.792;2023-07-16T17:11:04;16.48;;;13.07;;
57085;SDS011;42964;42.910;23.792;2023-07-16T17:16:03;22.20;;;13.07;;
57085;SDS011;42964;42.910;23.792;2023-07-16T17:21:02;18.17;;;13.20;;
57085;SDS011;42964;42.910;23.792;2023-07-16T17:26:01;18.20;;;12.48;;
57085;SDS011;42964;42.910;23.792;2023-07-16T17:31:00;15.68;;;12.85;;
57085;SDS011;42964;42.910;23.792;2023-07-16T17:35:59;18.83;;;14.07;;
57085;SDS011;42964;42.910;23.792;2023-07-16T17:40:58;17.13;;;13.13;;
57085;SDS011;42964;42.910;23.792;2023-07-16T17:45:57;16.58;;;13.57;;
57085;SDS011;42964;42.910;23.792;2023-07-16T17:50:58;18.33;;;13.80;;
57085;SDS011;42964;42.910;23.792;2023-07-16T17:55:57;15.25;;;13.55;;
57085;SDS011;42964;42.910;23.792;2023-07-16T18:00:57;15.75;;;13.32;;
57085;SDS011;42964;42.910;23.792;2023-07-16T18:05:56;22.67;;;15.68;;
57085;SDS011;42964;42.910;23.792;2023-07-16T18:10:55;16.58;;;14.88;;
57085;SDS011;42964;42.910;23.792;2023-07-16T18:15:54;18.52;;;14.52;;
57085;SDS011;42964;42.910;23.792;2023-07-16T18:20:53;18.00;;;14.85;;
57085;SDS011;42964;42.910;23.792;2023-07-16T18:25:52;17.10;;;15.30;;
57085;SDS011;42964;42.910;23.792;2023-07-16T18:30:50;17.38;;;15.02;;
57085;SDS011;42964;42.910;23.792;2023-07-16T18:35:53;17.67;;;15.75;;
57085;SDS011;42964;42.910;23.792;2023-07-16T18:40:53;18.90;;;14.80;;
57085;SDS011;42964;42.910;23.792;2023-07-16T18:45:52;17.60;;;15.70;;
57085;SDS011;42964;42.910;23.792;2023-07-16T18:50:52;17.48;;;14.60;;
57085;SDS011;42964;42.910;23.792;2023-07-16T18:55:51;18.65;;;14.55;;
57085;SDS011;42964;42.910;23.792;2023-07-16T19:00:52;19.40;;;14.82;;
57085;SDS011;42964;42.910;23.792;2023-07-16T19:05:52;17.98;;;14.55;;
57085;SDS011;42964;42.910;23.792;2023-07-16T19:10:51;17.92;;;13.93;;
57085;SDS011;42964;42.910;23.792;2023-07-16T19:15:50;15.48;;;13.52;;
57085;SDS011;42964;42.910;23.792;2023-07-16T19:20:49;15.02;;;13.50;;
57085;SDS011;42964;42.910;23.792;2023-07-16T19:25:48;17.48;;;13.57;;
57085;SDS011;42964;42.910;23.792;2023-07-16T19:30:47;17.73;;;14.07;;
57085;SDS011;42964;42.910;23.792;2023-07-16T19:35:46;19.25;;;13.90;;
57085;SDS011;42964;42.910;23.792;2023-07-16T19:40:45;18.73;;;13.63;;
57085;SDS011;42964;42.910;23.792;2023-07-16T19:45:45;19.25;;;14.13;;
57085;SDS011;42964;42.910;23.792;2023-07-16T19:50:44;23.25;;;15.40;;
57085;SDS011;42964;42.910;23.792;2023-07-16T19:55:45;16.33;;;14.13;;
57085;SDS011;42964;42.910;23.792;2023-07-16T20:00:44;16.88;;;14.23;;
57085;SDS011;42964;42.910;23.792;2023-07-16T20:05:43;19.70;;;15.32;;
57085;SDS011;42964;42.910;23.792;2023-07-16T20:10:45;18.20;;;15.43;;
57085;SDS011;42964;42.910;23.792;2023-07-16T20:15:45;17.40;;;15.43;;
57085;SDS011;42964;42.910;23.792;2023-07-16T20:20:45;20.50;;;15.60;;
57085;SDS011;42964;42.910;23.792;2023-07-16T20:25:44;17.77;;;15.68;;
57085;SDS011;42964;42.910;23.792;2023-07-16T20:30:44;22.45;;;17.17;;
57085;SDS011;42964;42.910;23.792;2023-07-16T20:35:44;19.13;;;17.08;;
57085;SDS011;42964;42.910;23.792;2023-07-16T20:40:43;20.90;;;18.00;;
57085;SDS011;42964;42.910;23.792;2023-07-16T20:45:42;19.58;;;17.55;;
57085;SDS011;42964;42.910;23.792;2023-07-16T20:50:43;21.30;;;18.23;;
57085;SDS011;42964;42.910;23.792;2023-07-16T20:55:42;21.02;;;18.45;;
57085;SDS011;42964;42.910;23.792;2023-07-16T21:00:42;25.38;;;19.00;;
57085;SDS011;42964;42.910;23.792;2023-07-16T21:05:41;21.70;;;18.95;;
57085;SDS011;42964;42.910;23.792;2023-07-16T21:10:39;22.05;;;19.40;;
57085;SDS011;42964;42.910;23.792;2023-07-16T21:15:38;24.58;;;19.48;;
57085;SDS011;42964;42.910;23.792;2023-07-16T21:20:37;21.17;;;18.85;;
57085;SDS011;42964;42.910;23.792;2023-07-16T21:25:36;21.95;;;18.83;;
57085;SDS011;42964;42.910;23.792;2023-07-16T21:30:36;24.48;;;19.92;;
57085;SDS011;42964;42.910;23.792;2023-07-16T21:35:35;22.10;;;19.42;;
57085;SDS011;42964;42.910;23.792;2023-07-16T21:40:34;24.35;;;19.92;;
57085;SDS011;42964;42.910;23.792;2023-07-16T21:45:33;25.05;;;19.52;;
57085;SDS011;42964;42.910;23.792;2023-07-16T21:50:32;23.63;;;19.50;;
57085;SDS011;42964;42.910;23.792;2023-07-16T21:55:31;22.65;;;19.33;;
57085;SDS011;42964;42.910;23.792;2023-07-16T22:00:30;27.27;;;20.73;;
57085;SDS011;42964;42.910;23.792;2023-07-16T22:05:30;22.13;;;18.73;;
57085;SDS011;42964;42.910;23.792;2023-07-16T22:10:29;24.45;;;20.10;;
57085;SDS011;42964;42.910;23.792;2023-07-16T22:15:28;22.17;;;19.98;;
57085;SDS011;42964;42.910;23.792;2023-07-16T22:20:27;23.80;;;21.30;;
57085;SDS011;42964;42.910;23.792;2023-07-16T22:25:29;22.85;;;20.42;;
57085;SDS011;42964;42.910;23.792;2023-07-16T22:30:28;25.27;;;20.75;;
57085;SDS011;42964;42.910;23.792;2023-07-16T22:35:27;26.90;;;21.05;;
57085;SDS011;42964;42.910;23.792;2023-07-16T22:40:26;25.95;;;22.05;;
57085;SDS011;42964;42.910;23.792;2023-07-16T22:45:25;25.45;;;20.70;;
57085;SDS011;42964;42.910;23.792;2023-07-16T22:50:24;23.88;;;21.33;;
57085;SDS011;42964;42.910;23.792;2023-07-16T22:55:23;26.23;;;19.80;;
57085;SDS011;42964;42.910;23.792;2023-07-16T23:00:24;21.55;;;19.30;;
57085;SDS011;42964;42.910;23.792;2023-07-16T23:05:24;25.45;;;20.55;;
57085;SDS011;42964;42.910;23.792;2023-07-16T23:10:23;24.40;;;21.23;;
57085;SDS011;42964;42.910;23.792;2023-07-16T23:15:22;25.48;;;22.70;;
57085;SDS011;42964;42.910;23.792;2023-07-16T23:20:21;23.52;;;21.02;;
57085;SDS011;42964;42.910;23.792;2023-07-16T23:25:20;24.15;;;20.30;;
57085;SDS011;42964;42.910;23.792;2023-07-16T23:30:19;26.10;;;21.23;;
57085;SDS011;42964;42.910;23.792;2023-07-16T23:35:19;24.85;;;20.17;;
57085;SDS011;42964;42.910;23.792;2023-07-16T23:40:18;23.50;;;21.20;;
57085;SDS011;42964;42.910;23.792;2023-07-16T23:45:17;23.88;;;21.27;;
57085;SDS011;42964;42.910;23.792;2023-07-16T23:50:16;23.45;;;20.25;;
57085;SDS011;42964;42.910;23.792;2023-07-16T23:55:15;24.17;;;21.60;;
